sensor_id;sensor_type;location;lat;lon;timestamp;temperature;humidity
67358;HTU21D;54240;51.096;5.878;2023-02-13T00:01:32;5.54;118.99
67358;HTU21D;54240;51.096;5.878;2023-02-13T00:03:58;5.52;118.99
67358;HTU21D;54240;51.096;5.878;2023-02-13T00:06:24;5.52;118.99
67358;HTU21D;54240;51.096;5.878;2023-02-13T00:08:51;5.50;118.99
67358;HTU21D;54240;51.096;5.878;2023-02-13T00:11:17;5.48;118.99
67358;HTU21D;54240;51.096;5.878;2023-02-13T00:13:45;5.49;118.99
67358;HTU21D;54240;51.096;5.878;2023-02-13T00:16:11;5.45;118.99
67358;HTU21D;54240;51.096;5.878;2023-02-13T00:18:37;5.40;118.99
67358;HTU21D;54240;51.096;5.878;2023-02-13T00:21:07;5.35;118.99
67358;HTU21D;54240;51.096;5.878;2023-02-13T00:23:35;5.28;118.99
67358;HTU21D;54240;51.096;5.878;2023-02-13T00:26:06;5.20;118.99
67358;HTU21D;54240;51.096;5.878;2023-02-13T00:28:32;5.15;118.99
67358;HTU21D;54240;51.096;5.878;2023-02-13T00:31:08;5.03;118.99
67358;HTU21D;54240;51.096;5.878;2023-02-13T00:33:34;4.92;118.99
67358;HTU21D;54240;51.096;5.878;2023-02-13T00:36:05;4.84;118.99
67358;HTU21D;54240;51.096;5.878;2023-02-13T00:38:32;4.77;118.99
67358;HTU21D;54240;51.096;5.878;2023-02-13T00:40:58;4.71;118.99
67358;HTU21D;54240;51.096;5.878;2023-02-13T00:43:23;4.66;118.99
67358;HTU21D;54240;51.096;5.878;2023-02-13T00:45:49;4.62;118.99
67358;HTU21D;54240;51.096;5.878;2023-02-13T00:48:15;4.58;118.99
67358;HTU21D;54240;51.096;5.878;2023-02-13T00:50:41;4.58;118.99
67358;HTU21D;54240;51.096;5.878;2023-02-13T00:53:08;4.56;118.99
67358;HTU21D;54240;51.096;5.878;2023-02-13T00:55:34;4.52;118.99
67358;HTU21D;54240;51.096;5.878;2023-02-13T00:58:00;4.51;118.99
67358;HTU21D;54240;51.096;5.878;2023-02-13T01:00:26;4.50;118.99
67358;HTU21D;54240;51.096;5.878;2023-02-13T01:02:52;4.48;118.99
67358;HTU21D;54240;51.096;5.878;2023-02-13T01:05:18;4.46;118.99
67358;HTU21D;54240;51.096;5.878;2023-02-13T01:07:45;4.46;118.99
67358;HTU21D;54240;51.096;5.878;2023-02-13T01:10:12;4.48;118.99
67358;HTU21D;54240;51.096;5.878;2023-02-13T01:12:37;4.46;118.99
67358;HTU21D;54240;51.096;5.878;2023-02-13T01:15:06;4.44;118.99
67358;HTU21D;54240;51.096;5.878;2023-02-13T01:17:32;4.39;118.99
67358;HTU21D;54240;51.096;5.878;2023-02-13T01:19:58;4.39;118.99
67358;HTU21D;54240;51.096;5.878;2023-02-13T01:22:23;4.34;118.99
67358;HTU21D;54240;51.096;5.878;2023-02-13T01:24:49;4.28;118.99
67358;HTU21D;54240;51.096;5.878;2023-02-13T01:27:15;4.19;118.99
67358;HTU21D;54240;51.096;5.878;2023-02-13T01:29:41;4.09;118.99
67358;HTU21D;54240;51.096;5.878;2023-02-13T01:32:07;4.03;118.99
67358;HTU21D;54240;51.096;5.878;2023-02-13T01:34:33;3.95;118.99
67358;HTU21D;54240;51.096;5.878;2023-02-13T01:36:59;3.90;118.99
67358;HTU21D;54240;51.096;5.878;2023-02-13T01:39:25;3.85;118.99
67358;HTU21D;54240;51.096;5.878;2023-02-13T01:41:51;3.86;118.99
67358;HTU21D;54240;51.096;5.878;2023-02-13T01:47:17;3.89;118.99
67358;HTU21D;54240;51.096;5.878;2023-02-13T01:49:46;3.91;118.99
67358;HTU21D;54240;51.096;5.878;2023-02-13T01:52:15;3.95;118.99
67358;HTU21D;54240;51.096;5.878;2023-02-13T01:54:43;3.97;118.99
67358;HTU21D;54240;51.096;5.878;2023-02-13T01:57:18;3.98;118.99
67358;HTU21D;54240;51.096;5.878;2023-02-13T02:00:08;3.97;118.99
67358;HTU21D;54240;51.096;5.878;2023-02-13T02:02:49;3.94;118.99
67358;HTU21D;54240;51.096;5.878;2023-02-13T02:05:22;3.90;118.99
67358;HTU21D;54240;51.096;5.878;2023-02-13T02:07:49;3.84;118.99
67358;HTU21D;54240;51.096;5.878;2023-02-13T02:10:20;3.78;118.99
67358;HTU21D;54240;51.096;5.878;2023-02-13T02:12:55;3.74;118.99
67358;HTU21D;54240;51.096;5.878;2023-02-13T02:15:23;3.71;118.99
67358;HTU21D;54240;51.096;5.878;2023-02-13T02:17:49;3.67;118.99
67358;HTU21D;54240;51.096;5.878;2023-02-13T02:26:19;3.59;118.99
67358;HTU21D;54240;51.096;5.878;2023-02-13T02:29:09;3.56;118.99
67358;HTU21D;54240;51.096;5.878;2023-02-13T02:46:49;3.18;118.99
67358;HTU21D;54240;51.096;5.878;2023-02-13T02:49:06;3.13;118.99
67358;HTU21D;54240;51.096;5.878;2023-02-13T02:52:02;3.08;118.99
67358;HTU21D;54240;51.096;5.878;2023-02-13T02:57:49;2.99;118.99
67358;HTU21D;54240;51.096;5.878;2023-02-13T03:00:39;2.97;118.99
67358;HTU21D;54240;51.096;5.878;2023-02-13T03:03:26;2.94;118.99
67358;HTU21D;54240;51.096;5.878;2023-02-13T03:06:18;2.89;118.99
67358;HTU21D;54240;51.096;5.878;2023-02-13T03:08:53;2.82;108.84
67358;HTU21D;54240;51.096;5.878;2023-02-13T03:11:41;2.71;91.50
67358;HTU21D;54240;51.096;5.878;2023-02-13T03:14:28;2.58;81.80
67358;HTU21D;54240;51.096;5.878;2023-02-13T03:16:56;2.49;85.00
67358;HTU21D;54240;51.096;5.878;2023-02-13T03:23:09;2.37;100.13
67358;HTU21D;54240;51.096;5.878;2023-02-13T03:26:00;2.35;112.10
67358;HTU21D;54240;51.096;5.878;2023-02-13T03:28:44;2.26;118.63
67358;HTU21D;54240;51.096;5.878;2023-02-13T03:34:12;2.22;118.99
67358;HTU21D;54240;51.096;5.878;2023-02-13T03:36:49;2.21;118.99
67358;HTU21D;54240;51.096;5.878;2023-02-13T03:42:58;2.19;118.99
67358;HTU21D;54240;51.096;5.878;2023-02-13T03:45:36;2.19;118.99
67358;HTU21D;54240;51.096;5.878;2023-02-13T03:48:39;2.20;118.99
67358;HTU21D;54240;51.096;5.878;2023-02-13T03:51:37;2.20;118.99
67358;HTU21D;54240;51.096;5.878;2023-02-13T03:54:16;2.20;118.99
67358;HTU21D;54240;51.096;5.878;2023-02-13T03:56:44;2.20;118.99
67358;HTU21D;54240;51.096;5.878;2023-02-13T03:59:34;2.15;118.99
67358;HTU21D;54240;51.096;5.878;2023-02-13T04:02:14;2.13;118.99
67358;HTU21D;54240;51.096;5.878;2023-02-13T04:07:25;2.10;118.99
67358;HTU21D;54240;51.096;5.878;2023-02-13T04:10:09;2.10;118.99
67358;HTU21D;54240;51.096;5.878;2023-02-13T04:13:29;2.09;118.99
67358;HTU21D;54240;51.096;5.878;2023-02-13T04:15:49;2.08;118.99
67358;HTU21D;54240;51.096;5.878;2023-02-13T04:18:28;2.07;118.99
67358;HTU21D;54240;51.096;5.878;2023-02-13T04:20:54;2.07;118.99
67358;HTU21D;54240;51.096;5.878;2023-02-13T04:23:20;2.06;115.38
67358;HTU21D;54240;51.096;5.878;2023-02-13T04:25:50;2.08;118.99
67358;HTU21D;54240;51.096;5.878;2023-02-13T04:28:16;2.12;118.99
67358;HTU21D;54240;51.096;5.878;2023-02-13T04:30:43;2.14;118.99
67358;HTU21D;54240;51.096;5.878;2023-02-13T04:33:09;2.13;118.99
67358;HTU21D;54240;51.096;5.878;2023-02-13T04:35:35;2.13;118.99
67358;HTU21D;54240;51.096;5.878;2023-02-13T04:38:01;2.10;118.99
67358;HTU21D;54240;51.096;5.878;2023-02-13T04:40:27;2.06;112.13
67358;HTU21D;54240;51.096;5.878;2023-02-13T04:42:52;2.00;99.42
67358;HTU21D;54240;51.096;5.878;2023-02-13T04:45:18;1.93;95.62
67358;HTU21D;54240;51.096;5.878;2023-02-13T04:47:52;1.87;102.99
67358;HTU21D;54240;51.096;5.878;2023-02-13T04:50:19;1.81;110.71
67358;HTU21D;54240;51.096;5.878;2023-02-13T04:52:45;1.76;117.20
67358;HTU21D;54240;51.096;5.878;2023-02-13T04:55:11;1.70;118.99
67358;HTU21D;54240;51.096;5.878;2023-02-13T04:57:38;1.65;118.99
67358;HTU21D;54240;51.096;5.878;2023-02-13T05:00:05;1.61;118.99
67358;HTU21D;54240;51.096;5.878;2023-02-13T05:02:32;1.56;118.99
67358;HTU21D;54240;51.096;5.878;2023-02-13T05:04:58;1.50;118.99
67358;HTU21D;54240;51.096;5.878;2023-02-13T05:07:23;1.46;118.99
67358;HTU21D;54240;51.096;5.878;2023-02-13T05:09:49;1.43;118.99
67358;HTU21D;54240;51.096;5.878;2023-02-13T05:12:15;1.41;118.99
67358;HTU21D;54240;51.096;5.878;2023-02-13T05:14:41;1.39;118.99
67358;HTU21D;54240;51.096;5.878;2023-02-13T05:17:07;1.39;118.99
67358;HTU21D;54240;51.096;5.878;2023-02-13T05:19:32;1.41;118.99
67358;HTU21D;54240;51.096;5.878;2023-02-13T05:21:58;1.39;118.99
67358;HTU21D;54240;51.096;5.878;2023-02-13T05:24:43;1.38;118.99
67358;HTU21D;54240;51.096;5.878;2023-02-13T05:27:08;1.36;118.99
67358;HTU21D;54240;51.096;5.878;2023-02-13T05:29:34;1.35;118.99
67358;HTU21D;54240;51.096;5.878;2023-02-13T05:32:00;1.34;118.99
67358;HTU21D;54240;51.096;5.878;2023-02-13T05:34:27;1.34;118.99
67358;HTU21D;54240;51.096;5.878;2023-02-13T05:36:54;1.33;118.99
67358;HTU21D;54240;51.096;5.878;2023-02-13T05:39:20;1.32;118.99
67358;HTU21D;54240;51.096;5.878;2023-02-13T05:41:47;1.31;118.99
67358;HTU21D;54240;51.096;5.878;2023-02-13T05:44:15;1.31;118.99
67358;HTU21D;54240;51.096;5.878;2023-02-13T05:46:41;1.27;118.99
67358;HTU21D;54240;51.096;5.878;2023-02-13T05:49:11;1.24;118.99
67358;HTU21D;54240;51.096;5.878;2023-02-13T05:51:37;1.25;118.99
67358;HTU21D;54240;51.096;5.878;2023-02-13T05:54:03;1.25;118.99
67358;HTU21D;54240;51.096;5.878;2023-02-13T05:56:29;1.22;118.99
67358;HTU21D;54240;51.096;5.878;2023-02-13T05:58:55;1.17;118.99
67358;HTU21D;54240;51.096;5.878;2023-02-13T06:01:22;1.13;118.99
67358;HTU21D;54240;51.096;5.878;2023-02-13T06:03:49;1.09;118.99
67358;HTU21D;54240;51.096;5.878;2023-02-13T06:06:15;1.10;118.99
67358;HTU21D;54240;51.096;5.878;2023-02-13T06:08:42;1.09;118.99
67358;HTU21D;54240;51.096;5.878;2023-02-13T06:11:09;1.10;118.99
67358;HTU21D;54240;51.096;5.878;2023-02-13T06:13:35;1.08;118.99
67358;HTU21D;54240;51.096;5.878;2023-02-13T06:16:02;1.09;118.99
67358;HTU21D;54240;51.096;5.878;2023-02-13T06:18:28;1.08;118.99
67358;HTU21D;54240;51.096;5.878;2023-02-13T06:20:54;1.08;118.99
67358;HTU21D;54240;51.096;5.878;2023-02-13T06:23:20;1.04;118.99
67358;HTU21D;54240;51.096;5.878;2023-02-13T06:25:46;1.02;118.99
67358;HTU21D;54240;51.096;5.878;2023-02-13T06:28:11;0.94;118.99
67358;HTU21D;54240;51.096;5.878;2023-02-13T06:30:37;0.90;118.99
67358;HTU21D;54240;51.096;5.878;2023-02-13T06:33:03;0.81;118.99
67358;HTU21D;54240;51.096;5.878;2023-02-13T06:35:29;0.77;118.99
67358;HTU21D;54240;51.096;5.878;2023-02-13T06:37:55;0.73;118.99
67358;HTU21D;54240;51.096;5.878;2023-02-13T06:40:20;0.72;118.99
67358;HTU21D;54240;51.096;5.878;2023-02-13T06:42:46;0.72;118.99
67358;HTU21D;54240;51.096;5.878;2023-02-13T06:45:13;0.72;118.99
67358;HTU21D;54240;51.096;5.878;2023-02-13T06:47:45;0.69;118.99
67358;HTU21D;54240;51.096;5.878;2023-02-13T06:50:14;0.66;118.99
67358;HTU21D;54240;51.096;5.878;2023-02-13T06:52:46;0.62;118.99
67358;HTU21D;54240;51.096;5.878;2023-02-13T06:55:12;0.60;118.99
67358;HTU21D;54240;51.096;5.878;2023-02-13T06:57:38;0.60;118.99
67358;HTU21D;54240;51.096;5.878;2023-02-13T07:00:05;0.57;118.99
67358;HTU21D;54240;51.096;5.878;2023-02-13T07:02:32;0.50;118.99
67358;HTU21D;54240;51.096;5.878;2023-02-13T07:04:57;0.51;118.99
67358;HTU21D;54240;51.096;5.878;2023-02-13T07:07:23;0.52;118.99
67358;HTU21D;54240;51.096;5.878;2023-02-13T07:09:49;0.52;118.99
67358;HTU21D;54240;51.096;5.878;2023-02-13T07:12:16;0.57;118.99
67358;HTU21D;54240;51.096;5.878;2023-02-13T07:14:41;0.60;118.99
67358;HTU21D;54240;51.096;5.878;2023-02-13T07:17:07;0.62;118.99
67358;HTU21D;54240;51.096;5.878;2023-02-13T07:19:35;0.69;118.99
67358;HTU21D;54240;51.096;5.878;2023-02-13T07:22:01;0.73;118.99
67358;HTU21D;54240;51.096;5.878;2023-02-13T07:24:27;0.80;118.99
67358;HTU21D;54240;51.096;5.878;2023-02-13T07:26:52;0.88;118.99
67358;HTU21D;54240;51.096;5.878;2023-02-13T07:29:18;0.93;118.99
67358;HTU21D;54240;51.096;5.878;2023-02-13T07:31:44;1.04;118.99
67358;HTU21D;54240;51.096;5.878;2023-02-13T07:34:10;1.23;118.99
67358;HTU21D;54240;51.096;5.878;2023-02-13T07:36:36;1.51;118.99
67358;HTU21D;54240;51.096;5.878;2023-02-13T07:39:02;1.81;118.99
67358;HTU21D;54240;51.096;5.878;2023-02-13T07:41:27;2.00;118.99
67358;HTU21D;54240;51.096;5.878;2023-02-13T07:43:53;2.21;118.99
67358;HTU21D;54240;51.096;5.878;2023-02-13T07:46:19;2.46;118.99
67358;HTU21D;54240;51.096;5.878;2023-02-13T07:48:45;2.81;118.99
67358;HTU21D;54240;51.096;5.878;2023-02-13T07:51:11;3.12;118.99
67358;HTU21D;54240;51.096;5.878;2023-02-13T07:53:37;3.35;106.19
67358;HTU21D;54240;51.096;5.878;2023-02-13T07:56:07;3.59;15.02
67358;HTU21D;54240;51.096;5.878;2023-02-13T07:58:34;3.86;-6.00
67358;HTU21D;54240;51.096;5.878;2023-02-13T08:01:11;4.18;-6.00
67358;HTU21D;54240;51.096;5.878;2023-02-13T08:03:37;4.53;-6.00
67358;HTU21D;54240;51.096;5.878;2023-02-13T08:06:04;4.87;-6.00
67358;HTU21D;54240;51.096;5.878;2023-02-13T08:08:30;5.18;-6.00
67358;HTU21D;54240;51.096;5.878;2023-02-13T08:11:05;5.39;-6.00
67358;HTU21D;54240;51.096;5.878;2023-02-13T08:13:50;5.65;-6.00
67358;HTU21D;54240;51.096;5.878;2023-02-13T08:16:16;5.87;-6.00
67358;HTU21D;54240;51.096;5.878;2023-02-13T08:18:42;6.10;-6.00
67358;HTU21D;54240;51.096;5.878;2023-02-13T08:21:08;6.30;-6.00
67358;HTU21D;54240;51.096;5.878;2023-02-13T08:23:34;6.52;-6.00
67358;HTU21D;54240;51.096;5.878;2023-02-13T08:26:01;6.84;-6.00
67358;HTU21D;54240;51.096;5.878;2023-02-13T08:28:30;7.23;-6.00
67358;HTU21D;54240;51.096;5.878;2023-02-13T08:30:57;7.76;-6.00
67358;HTU21D;54240;51.096;5.878;2023-02-13T08:33:22;8.14;-6.00
67358;HTU21D;54240;51.096;5.878;2023-02-13T08:35:48;8.43;-6.00
67358;HTU21D;54240;51.096;5.878;2023-02-13T08:38:14;8.65;-6.00
67358;HTU21D;54240;51.096;5.878;2023-02-13T08:40:40;8.81;-6.00
67358;HTU21D;54240;51.096;5.878;2023-02-13T08:43:06;8.97;-6.00
67358;HTU21D;54240;51.096;5.878;2023-02-13T08:45:34;9.21;-6.00
67358;HTU21D;54240;51.096;5.878;2023-02-13T08:48:00;9.50;-6.00
67358;HTU21D;54240;51.096;5.878;2023-02-13T08:50:28;9.84;-6.00
67358;HTU21D;54240;51.096;5.878;2023-02-13T08:52:54;10.18;-6.00
67358;HTU21D;54240;51.096;5.878;2023-02-13T08:55:20;10.49;-6.00
67358;HTU21D;54240;51.096;5.878;2023-02-13T08:57:46;10.70;-6.00
67358;HTU21D;54240;51.096;5.878;2023-02-13T09:00:12;11.01;-6.00
67358;HTU21D;54240;51.096;5.878;2023-02-13T09:02:39;11.46;-6.00
67358;HTU21D;54240;51.096;5.878;2023-02-13T09:05:05;11.76;-6.00
67358;HTU21D;54240;51.096;5.878;2023-02-13T09:07:31;12.05;-6.00
67358;HTU21D;54240;51.096;5.878;2023-02-13T09:09:57;12.38;-6.00
67358;HTU21D;54240;51.096;5.878;2023-02-13T09:12:23;12.66;-6.00
67358;HTU21D;54240;51.096;5.878;2023-02-13T09:14:48;12.84;-6.00
67358;HTU21D;54240;51.096;5.878;2023-02-13T09:17:14;12.94;-6.00
67358;HTU21D;54240;51.096;5.878;2023-02-13T09:19:42;13.03;-6.00
67358;HTU21D;54240;51.096;5.878;2023-02-13T09:22:10;13.01;-6.00
67358;HTU21D;54240;51.096;5.878;2023-02-13T09:24:35;12.93;-6.00
67358;HTU21D;54240;51.096;5.878;2023-02-13T09:27:03;12.75;-6.00
67358;HTU21D;54240;51.096;5.878;2023-02-13T09:29:29;13.02;-6.00
67358;HTU21D;54240;51.096;5.878;2023-02-13T09:31:58;13.43;-6.00
67358;HTU21D;54240;51.096;5.878;2023-02-13T09:34:24;13.63;-6.00
67358;HTU21D;54240;51.096;5.878;2023-02-13T09:36:51;13.75;-6.00
67358;HTU21D;54240;51.096;5.878;2023-02-13T09:39:18;13.74;-6.00
67358;HTU21D;54240;51.096;5.878;2023-02-13T09:41:48;13.99;-6.00
67358;HTU21D;54240;51.096;5.878;2023-02-13T09:44:28;14.44;-6.00
67358;HTU21D;54240;51.096;5.878;2023-02-13T09:50:06;15.22;-6.00
67358;HTU21D;54240;51.096;5.878;2023-02-13T09:52:35;15.45;-6.00
67358;HTU21D;54240;51.096;5.878;2023-02-13T09:55:16;15.59;-6.00
67358;HTU21D;54240;51.096;5.878;2023-02-13T09:57:53;15.84;-6.00
67358;HTU21D;54240;51.096;5.878;2023-02-13T10:00:33;16.12;-6.00
67358;HTU21D;54240;51.096;5.878;2023-02-13T10:09:43;15.98;-6.00
67358;HTU21D;54240;51.096;5.878;2023-02-13T10:12:00;16.01;-6.00
67358;HTU21D;54240;51.096;5.878;2023-02-13T10:14:57;16.35;-6.00
67358;HTU21D;54240;51.096;5.878;2023-02-13T10:17:35;16.55;-6.00
67358;HTU21D;54240;51.096;5.878;2023-02-13T10:22:56;17.15;-6.00
67358;HTU21D;54240;51.096;5.878;2023-02-13T10:25:37;17.16;-6.00
67358;HTU21D;54240;51.096;5.878;2023-02-13T10:28:54;17.13;-6.00
67358;HTU21D;54240;51.096;5.878;2023-02-13T10:31:14;16.73;-6.00
67358;HTU21D;54240;51.096;5.878;2023-02-13T10:33:56;16.24;-6.00
67358;HTU21D;54240;51.096;5.878;2023-02-13T10:36:26;16.11;-6.00
67358;HTU21D;54240;51.096;5.878;2023-02-13T10:50:47;16.77;-6.00
67358;HTU21D;54240;51.096;5.878;2023-02-13T10:53:21;17.25;-6.00
67358;HTU21D;54240;51.096;5.878;2023-02-13T10:59:06;17.78;-6.00
67358;HTU21D;54240;51.096;5.878;2023-02-13T11:04:12;17.80;-6.00
67358;HTU21D;54240;51.096;5.878;2023-02-13T11:06:45;18.04;-6.00
67358;HTU21D;54240;51.096;5.878;2023-02-13T11:09:14;18.50;-6.00
67358;HTU21D;54240;51.096;5.878;2023-02-13T11:11:41;18.85;-6.00
67358;HTU21D;54240;51.096;5.878;2023-02-13T11:14:24;18.87;-6.00
67358;HTU21D;54240;51.096;5.878;2023-02-13T11:19:25;19.30;-6.00
67358;HTU21D;54240;51.096;5.878;2023-02-13T11:22:07;19.42;-6.00
67358;HTU21D;54240;51.096;5.878;2023-02-13T11:24:36;19.95;-6.00
67358;HTU21D;54240;51.096;5.878;2023-02-13T11:27:08;20.35;-6.00
67358;HTU21D;54240;51.096;5.878;2023-02-13T11:29:52;20.84;-6.00
67358;HTU21D;54240;51.096;5.878;2023-02-13T11:32:20;21.32;-6.00
67358;HTU21D;54240;51.096;5.878;2023-02-13T11:34:47;21.63;-6.00
67358;HTU21D;54240;51.096;5.878;2023-02-13T11:39:46;22.33;-6.00
67358;HTU21D;54240;51.096;5.878;2023-02-13T11:42:35;22.76;-6.00
67358;HTU21D;54240;51.096;5.878;2023-02-13T11:45:24;23.13;-6.00
67358;HTU21D;54240;51.096;5.878;2023-02-13T11:47:53;23.37;-6.00
67358;HTU21D;54240;51.096;5.878;2023-02-13T11:50:30;23.43;-6.00
67358;HTU21D;54240;51.096;5.878;2023-02-13T11:53:20;23.24;-6.00
67358;HTU21D;54240;51.096;5.878;2023-02-13T11:56:11;23.34;-6.00
67358;HTU21D;54240;51.096;5.878;2023-02-13T11:58:37;23.40;-6.00
67358;HTU21D;54240;51.096;5.878;2023-02-13T12:01:25;23.39;-6.00
67358;HTU21D;54240;51.096;5.878;2023-02-13T12:04:06;23.57;-6.00
67358;HTU21D;54240;51.096;5.878;2023-02-13T12:06:38;23.58;-6.00
67358;HTU21D;54240;51.096;5.878;2023-02-13T12:09:14;23.69;-6.00
67358;HTU21D;54240;51.096;5.878;2023-02-13T12:11:50;23.56;-6.00
67358;HTU21D;54240;51.096;5.878;2023-02-13T12:14:22;23.47;-6.00
67358;HTU21D;54240;51.096;5.878;2023-02-13T12:16:55;23.60;-6.00
67358;HTU21D;54240;51.096;5.878;2023-02-13T12:19:43;23.76;-6.00
67358;HTU21D;54240;51.096;5.878;2023-02-13T12:31:14;24.06;-6.00
67358;HTU21D;54240;51.096;5.878;2023-02-13T12:39:23;23.92;-6.00
67358;HTU21D;54240;51.096;5.878;2023-02-13T12:41:56;22.95;-6.00
67358;HTU21D;54240;51.096;5.878;2023-02-13T12:44:47;22.12;-6.00
67358;HTU21D;54240;51.096;5.878;2023-02-13T12:47:19;20.88;-6.00
67358;HTU21D;54240;51.096;5.878;2023-02-13T12:58:02;18.94;-6.00
67358;HTU21D;54240;51.096;5.878;2023-02-13T13:12:01;18.69;-6.00
67358;HTU21D;54240;51.096;5.878;2023-02-13T13:20:04;18.22;-6.00
67358;HTU21D;54240;51.096;5.878;2023-02-13T13:22:50;17.85;-6.00
67358;HTU21D;54240;51.096;5.878;2023-02-13T13:25:36;17.00;-6.00
67358;HTU21D;54240;51.096;5.878;2023-02-13T13:28:23;16.44;-6.00
67358;HTU21D;54240;51.096;5.878;2023-02-13T13:30:52;16.33;-6.00
67358;HTU21D;54240;51.096;5.878;2023-02-13T13:33:21;16.39;-6.00
67358;HTU21D;54240;51.096;5.878;2023-02-13T13:36:10;16.49;-6.00
67358;HTU21D;54240;51.096;5.878;2023-02-13T13:41:22;16.87;-6.00
67358;HTU21D;54240;51.096;5.878;2023-02-13T13:49:55;16.25;-6.00
67358;HTU21D;54240;51.096;5.878;2023-02-13T13:54:51;16.37;-6.00
67358;HTU21D;54240;51.096;5.878;2023-02-13T13:57:56;16.67;-6.00
67358;HTU21D;54240;51.096;5.878;2023-02-13T14:02:45;16.87;-6.00
67358;HTU21D;54240;51.096;5.878;2023-02-13T14:05:24;17.03;-6.00
67358;HTU21D;54240;51.096;5.878;2023-02-13T14:08:00;16.65;-6.00
67358;HTU21D;54240;51.096;5.878;2023-02-13T14:26:17;17.36;-6.00
67358;HTU21D;54240;51.096;5.878;2023-02-13T14:31:32;17.25;-6.00
67358;HTU21D;54240;51.096;5.878;2023-02-13T14:34:16;17.32;-6.00
67358;HTU21D;54240;51.096;5.878;2023-02-13T14:36:47;17.14;-6.00
67358;HTU21D;54240;51.096;5.878;2023-02-13T14:39:27;16.89;-6.00
67358;HTU21D;54240;51.096;5.878;2023-02-13T14:44:44;16.95;-6.00
67358;HTU21D;54240;51.096;5.878;2023-02-13T14:47:21;17.05;-6.00
67358;HTU21D;54240;51.096;5.878;2023-02-13T14:49:52;16.99;-6.00
67358;HTU21D;54240;51.096;5.878;2023-02-13T14:52:36;17.04;-6.00
67358;HTU21D;54240;51.096;5.878;2023-02-13T14:55:13;17.05;-6.00
67358;HTU21D;54240;51.096;5.878;2023-02-13T15:01:03;16.79;-6.00
67358;HTU21D;54240;51.096;5.878;2023-02-13T15:03:37;16.80;-6.00
67358;HTU21D;54240;51.096;5.878;2023-02-13T15:06:25;16.85;-6.00
67358;HTU21D;54240;51.096;5.878;2023-02-13T15:08:52;16.85;-6.00
67358;HTU21D;54240;51.096;5.878;2023-02-13T15:11:39;16.85;-6.00
67358;HTU21D;54240;51.096;5.878;2023-02-13T15:14:21;16.87;-6.00
67358;HTU21D;54240;51.096;5.878;2023-02-13T15:17:13;16.90;-6.00
67358;HTU21D;54240;51.096;5.878;2023-02-13T15:19:43;17.00;-6.00
67358;HTU21D;54240;51.096;5.878;2023-02-13T15:22:21;16.96;-6.00
67358;HTU21D;54240;51.096;5.878;2023-02-13T15:24:49;16.91;-6.00
67358;HTU21D;54240;51.096;5.878;2023-02-13T15:27:19;16.81;-6.00
67358;HTU21D;54240;51.096;5.878;2023-02-13T15:32:32;16.64;-6.00
67358;HTU21D;54240;51.096;5.878;2023-02-13T15:34:58;16.61;-6.00
67358;HTU21D;54240;51.096;5.878;2023-02-13T15:37:28;16.47;-6.00
67358;HTU21D;54240;51.096;5.878;2023-02-13T15:39:54;16.42;-6.00
67358;HTU21D;54240;51.096;5.878;2023-02-13T15:42:20;16.42;-6.00
67358;HTU21D;54240;51.096;5.878;2023-02-13T15:44:50;16.44;-6.00
67358;HTU21D;54240;51.096;5.878;2023-02-13T15:47:27;16.40;-6.00
67358;HTU21D;54240;51.096;5.878;2023-02-13T15:49:55;16.34;-6.00
67358;HTU21D;54240;51.096;5.878;2023-02-13T15:52:36;16.28;-6.00
67358;HTU21D;54240;51.096;5.878;2023-02-13T15:55:03;16.22;-6.00
67358;HTU21D;54240;51.096;5.878;2023-02-13T15:57:30;16.15;-6.00
67358;HTU21D;54240;51.096;5.878;2023-02-13T15:59:59;16.04;-6.00
67358;HTU21D;54240;51.096;5.878;2023-02-13T16:02:40;16.00;-6.00
67358;HTU21D;54240;51.096;5.878;2023-02-13T16:05:11;15.87;-6.00
67358;HTU21D;54240;51.096;5.878;2023-02-13T16:07:50;15.70;-6.00
67358;HTU21D;54240;51.096;5.878;2023-02-13T16:10:32;15.56;-6.00
67358;HTU21D;54240;51.096;5.878;2023-02-13T16:13:02;15.39;-6.00
67358;HTU21D;54240;51.096;5.878;2023-02-13T16:15:33;15.25;-6.00
67358;HTU21D;54240;51.096;5.878;2023-02-13T16:17:59;15.14;-6.00
67358;HTU21D;54240;51.096;5.878;2023-02-13T16:20:28;14.97;-6.00
67358;HTU21D;54240;51.096;5.878;2023-02-13T16:23:01;14.91;-6.00
67358;HTU21D;54240;51.096;5.878;2023-02-13T16:25:36;14.83;-6.00
67358;HTU21D;54240;51.096;5.878;2023-02-13T16:28:22;14.74;-6.00
67358;HTU21D;54240;51.096;5.878;2023-02-13T16:30:59;14.59;-6.00
67358;HTU21D;54240;51.096;5.878;2023-02-13T16:33:38;14.44;-6.00
67358;HTU21D;54240;51.096;5.878;2023-02-13T16:38:55;14.17;-6.00
67358;HTU21D;54240;51.096;5.878;2023-02-13T16:43:51;13.95;-6.00
67358;HTU21D;54240;51.096;5.878;2023-02-13T16:51:40;13.63;-6.00
67358;HTU21D;54240;51.096;5.878;2023-02-13T17:04:51;12.87;-6.00
67358;HTU21D;54240;51.096;5.878;2023-02-13T17:07:25;12.71;-6.00
67358;HTU21D;54240;51.096;5.878;2023-02-13T17:10:04;12.56;-6.00
67358;HTU21D;54240;51.096;5.878;2023-02-13T17:12:35;12.42;-6.00
67358;HTU21D;54240;51.096;5.878;2023-02-13T17:15:09;12.30;-6.00
67358;HTU21D;54240;51.096;5.878;2023-02-13T17:17:37;12.16;-6.00
67358;HTU21D;54240;51.096;5.878;2023-02-13T17:20:03;12.04;-6.00
67358;HTU21D;54240;51.096;5.878;2023-02-13T17:22:34;11.93;-6.00
67358;HTU21D;54240;51.096;5.878;2023-02-13T17:25:03;11.81;-6.00
67358;HTU21D;54240;51.096;5.878;2023-02-13T17:27:30;11.69;-6.00
67358;HTU21D;54240;51.096;5.878;2023-02-13T17:29:56;11.57;-6.00
67358;HTU21D;54240;51.096;5.878;2023-02-13T17:32:24;11.47;-6.00
67358;HTU21D;54240;51.096;5.878;2023-02-13T17:34:51;11.33;-6.00
67358;HTU21D;54240;51.096;5.878;2023-02-13T17:37:25;11.22;-6.00
67358;HTU21D;54240;51.096;5.878;2023-02-13T17:39:52;11.12;-6.00
67358;HTU21D;54240;51.096;5.878;2023-02-13T17:42:27;11.01;-6.00
67358;HTU21D;54240;51.096;5.878;2023-02-13T17:44:56;10.95;-6.00
67358;HTU21D;54240;51.096;5.878;2023-02-13T17:47:23;10.88;-6.00
67358;HTU21D;54240;51.096;5.878;2023-02-13T17:49:50;10.80;-6.00
67358;HTU21D;54240;51.096;5.878;2023-02-13T17:52:23;10.77;-6.00
67358;HTU21D;54240;51.096;5.878;2023-02-13T17:54:50;10.69;-6.00
67358;HTU21D;54240;51.096;5.878;2023-02-13T17:57:17;10.63;-6.00
67358;HTU21D;54240;51.096;5.878;2023-02-13T17:59:44;10.50;-6.00
67358;HTU21D;54240;51.096;5.878;2023-02-13T18:02:19;10.40;-6.00
67358;HTU21D;54240;51.096;5.878;2023-02-13T18:04:47;10.27;-6.00
67358;HTU21D;54240;51.096;5.878;2023-02-13T18:07:18;10.19;-6.00
67358;HTU21D;54240;51.096;5.878;2023-02-13T18:09:44;10.09;-6.00
67358;HTU21D;54240;51.096;5.878;2023-02-13T18:12:16;9.99;-6.00
67358;HTU21D;54240;51.096;5.878;2023-02-13T18:14:42;9.90;-6.00
67358;HTU21D;54240;51.096;5.878;2023-02-13T18:17:08;9.81;-6.00
67358;HTU21D;54240;51.096;5.878;2023-02-13T18:19:34;9.75;-6.00
67358;HTU21D;54240;51.096;5.878;2023-02-13T18:22:00;9.67;-6.00
67358;HTU21D;54240;51.096;5.878;2023-02-13T18:24:30;9.57;-6.00
67358;HTU21D;54240;51.096;5.878;2023-02-13T18:26:57;9.48;-6.00
67358;HTU21D;54240;51.096;5.878;2023-02-13T18:29:23;9.36;-6.00
67358;HTU21D;54240;51.096;5.878;2023-02-13T18:31:49;9.27;-6.00
67358;HTU21D;54240;51.096;5.878;2023-02-13T18:34:20;9.22;-6.00
67358;HTU21D;54240;51.096;5.878;2023-02-13T18:36:47;9.16;-6.00
67358;HTU21D;54240;51.096;5.878;2023-02-13T18:39:14;9.09;-6.00